EST,Max TemperatureF,Mean TemperatureF,Min TemperatureF,Max Dew PointF,MeanDew PointF,Min DewpointF,Max Humidity, Mean Humidity, Min Humidity, Max Sea Level PressureIn, Mean Sea Level PressureIn, Min Sea Level PressureIn, Max VisibilityMiles, Mean VisibilityMiles, Min VisibilityMiles, Max Wind SpeedMPH, Mean Wind SpeedMPH, Max Gust SpeedMPH,PrecipitationIn, CloudCover, Events, WindDirDegrees
2014-1-1,30,26,21,16,11,7,66,52,37,30.40,30.34,30.25,10,10,9,12,7,18,0.00,3,,298
2014-1-2,28,20,10,23,18,7,93,81,69,30.30,29.98,29.70,10,5,1,21,15,29,0.00,8,Snow,32
2014-1-3,16,10,3,7,2,-9,85,71,42,30.45,29.87,29.60,10,4,0,25,19,38,0.00,5,Fog-Snow,352
2014-1-4,34,18,1,26,10,-7,83,69,56,30.56,30.43,30.31,10,10,7,17,7,21,0.00,0,,274
2014-1-5,48,30,12,48,32,11,100,93,78,30.35,30.18,29.86,9,4,0,21,5,26,0.03,6,Fog-Rain,69
2014-1-6,53,43,33,54,44,17,100,94,52,29.84,29.54,29.37,10,4,0,23,16,23,0.09,8,Fog-Rain,206
2014-1-7,30,20,9,21,-1,-11,80,51,35,30.32,29.97,29.58,10,8,2,24,17,33,0.00,2,Snow,280
2014-1-8,21,14,8,7,0,-7,56,51,42,30.53,30.45,30.35,10,10,9,15,9,22,0.00,1,,269
2014-1-9,32,24,15,12,8,4,81,56,38,30.66,30.59,30.47,10,9,8,15,6,24,0.00,1,,313
2014-1-10,37,26,15,37,29,11,100,92,75,30.61,30.43,30.25,8,2,0,5,2,,0.02,8,Fog-Rain-Snow,7
2014-1-11,54,46,37,54,48,37,100,98,93,30.23,29.70,29.35,8,2,0,26,10,34,0.67,8,Fog-Rain-Thunderstorm,190
2014-1-12,50,43,36,48,36,26,100,74,50,30.04,29.63,29.38,10,8,2,21,11,32,0.16,5,Rain,269
2014-1-13,46,36,27,44,34,25,97,82,65,30.17,30.07,29.94,10,7,5,12,5,,0.00,1,,197
2014-1-14,48,46,43,48,45,40,100,94,86,29.93,29.75,29.63,10,4,1,9,4,,0.11,7,Rain,248
2014-1-15,64,48,33,41,36,32,100,86,40,30.04,29.94,29.82,10,3,0,8,3,,0.00,2,Fog,345
2014-1-16,48,42,35,39,37,34,100,94,70,29.94,29.88,29.84,7,2,0,6,3,,0.00,7,Fog,344
2014-1-17,41,36,30,34,31,23,96,81,49,30.01,29.95,29.91,8,7,4,9,5,,0.00,2,,242
2014-1-18,43,38,33,39,34,24,93,86,70,29.90,29.71,29.60,10,7,2,15,6,21,0.06,8,Rain,341
2014-1-19,46,37,28,27,23,19,86,59,42,29.78,29.71,29.62,10,8,2,22,13,38,0.00,4,Snow,254
2014-1-20,54,44,33,31,26,14,65,43,36,29.87,29.65,29.54,10,9,7,17,13,28,0.00,2,,266
2014-1-21,33,26,19,14,10,3,65,58,32,30.03,29.92,29.76,10,4,0,22,12,29,0.00,6,Snow,11
2014-1-22,26,19,12,7,0,-6,68,48,27,29.93,29.76,29.66,10,6,1,24,17,30,0.00,4,Snow,338
2014-1-23,36,20,3,2,-3,-6,69,41,19,30.23,30.09,29.94,10,10,9,15,8,20,0.00,1,,289
2014-1-24,30,18,6,6,0,-4,67,43,24,30.32,30.23,30.10,10,10,9,18,10,26,0.00,0,,286
2014-1-25,37,29,21,28,23,6,93,75,53,30.06,29.57,29.41,10,6,1,31,20,43,0.00,7,Snow,239
2014-1-26,30,22,17,25,9,-3,79,60,37,29.89,29.75,29.42,10,8,2,23,13,33,0.00,4,Snow,264
2014-1-27,43,32,21,37,23,-6,81,63,30,30.03,29.75,29.60,10,8,6,21,10,29,0.00,6,,262
2014-1-28,19,16,14,-2,-6,-9,40,34,29,30.34,30.25,30.05,10,10,9,16,10,24,0.00,2,,329
2014-1-29,23,18,14,12,7,-2,92,66,38,30.26,30.14,30.04,10,5,1,16,6,21,0.00,5,Snow,316
2014-1-30,28,18,7,22,8,-1,75,58,38,30.46,30.36,30.20,10,9,7,14,7,,0.00,0,,245
2014-1-31,37,28,19,24,20,14,89,65,43,30.24,30.13,30.07,9,8,7,12,5,22,0.00,3,,271